createdAt,value
2019-03-25T00:00:39.004Z,95.53
2019-03-25T00:01:39.632Z,95.68
2019-03-25T00:02:40.044Z,96.04
2019-03-25T00:03:39.854Z,96.90
2019-03-25T00:04:40.066Z,97.32
2019-03-25T00:05:40.678Z,97.68
2019-03-25T00:06:40.538Z,97.47
2019-03-25T00:07:40.692Z,98.06
2019-03-25T00:08:40.803Z,97.98
2019-03-25T00:09:41.226Z,98.71
2019-03-25T00:10:41.321Z,99.28
2019-03-25T00:11:41.798Z,99.28
2019-03-25T00:12:41.951Z,99.83
2019-03-25T00:13:42.498Z,100.00
2019-03-25T00:14:43.002Z,100.00
2019-03-25T00:15:42.795Z,100.00
2019-03-25T00:16:43.208Z,100.00
2019-03-25T00:17:43.421Z,100.00
2019-03-25T00:18:43.748Z,100.00
2019-03-25T00:19:44.060Z,100.00
2019-03-25T00:20:44.332Z,100.00
2019-03-25T00:21:44.681Z,100.00
2019-03-25T00:22:45.017Z,100.00
2019-03-25T00:24:45.530Z,100.00
2019-03-25T00:25:46.033Z,100.00
2019-03-25T00:26:46.551Z,100.00
2019-03-25T00:27:46.580Z,100.00
2019-03-25T00:28:46.769Z,100.00
2019-03-25T00:29:46.795Z,100.00
2019-03-25T00:30:47.191Z,100.00
2019-03-25T00:31:47.504Z,100.00
2019-03-25T00:32:47.712Z,100.00
2019-03-25T00:33:47.929Z,100.00
2019-03-25T00:34:48.047Z,100.00
2019-03-25T00:35:48.245Z,100.00
2019-03-25T00:36:47.978Z,99.67
2019-03-25T00:37:48.361Z,99.04
2019-03-25T00:38:48.677Z,98.50
2019-03-25T00:39:48.282Z,98.75
2019-03-25T00:40:48.699Z,97.97
2019-03-25T00:41:48.596Z,96.91
2019-03-25T00:42:49.110Z,95.43
2019-03-25T00:43:49.460Z,96.00
2019-03-25T00:44:50.057Z,95.46
2019-03-25T00:45:50.157Z,95.22
2019-03-25T00:46:49.562Z,94.18
2019-03-25T00:47:50.357Z,93.40
2019-03-25T00:48:50.893Z,93.38
2019-03-25T00:49:50.807Z,93.02
2019-03-25T00:50:51.019Z,92.52
2019-03-25T00:51:51.528Z,92.90
2019-03-25T00:52:51.637Z,92.43
2019-03-25T00:53:51.591Z,92.09
2019-03-25T00:54:52.168Z,91.34
2019-03-25T00:55:52.269Z,91.54
2019-03-25T00:56:52.375Z,90.43
2019-03-25T00:57:52.494Z,90.26
2019-03-25T00:58:52.500Z,88.71
2019-03-25T00:59:52.632Z,88.27
2019-03-25T01:00:52.964Z,88.86
2019-03-25T01:01:53.023Z,88.70
2019-03-25T01:02:53.339Z,88.56
2019-03-25T01:03:53.347Z,88.61
2019-03-25T01:04:54.387Z,87.55
2019-03-25T01:05:54.281Z,88.27
2019-03-25T01:06:54.800Z,87.99
2019-03-25T01:07:54.814Z,88.15
2019-03-25T01:08:54.501Z,88.09
2019-03-25T01:09:55.023Z,87.51
2019-03-25T01:10:55.343Z,87.68
2019-03-25T01:11:55.894Z,86.92
2019-03-25T01:12:55.971Z,87.55
2019-03-25T01:13:56.079Z,87.46
2019-03-25T01:14:56.190Z,87.60
2019-03-25T01:15:55.990Z,86.45
2019-03-25T01:16:56.304Z,87.07
2019-03-25T01:17:56.630Z,86.71
2019-03-25T01:18:57.237Z,86.37
2019-03-25T01:19:56.938Z,86.39
2019-03-25T01:20:57.349Z,86.45
2019-03-25T01:21:57.322Z,86.38
2019-03-25T01:22:57.677Z,86.47
2019-03-25T01:23:58.108Z,86.56
2019-03-25T01:25:02.177Z,86.59
2019-03-25T01:25:58.714Z,86.79
2019-03-25T01:26:59.232Z,87.03
2019-03-25T01:27:58.929Z,87.05
2019-03-25T01:28:59.456Z,87.33
2019-03-25T01:29:59.631Z,87.62
2019-03-25T01:30:59.664Z,87.57
2019-03-25T01:31:59.568Z,87.84
2019-03-25T01:32:59.975Z,88.21
2019-03-25T01:34:00.418Z,88.66
2019-03-25T01:35:01.023Z,89.36
2019-03-25T01:36:01.131Z,89.17
2019-03-25T01:37:00.936Z,89.67
2019-03-25T01:38:01.249Z,89.58
2019-03-25T01:39:01.985Z,89.81
2019-03-25T01:40:02.390Z,89.83
2019-03-25T01:41:02.318Z,89.72
2019-03-25T01:42:02.914Z,89.85
2019-03-25T01:43:03.023Z,89.88
2019-03-25T01:44:03.147Z,90.02
2019-03-25T01:45:03.552Z,90.03
2019-03-25T01:46:04.168Z,90.09
2019-03-25T01:47:03.820Z,90.60
2019-03-25T01:48:04.387Z,91.10
2019-03-25T01:49:04.507Z,90.55
2019-03-25T01:50:04.400Z,90.69
2019-03-25T01:51:05.022Z,90.61
2019-03-25T01:52:05.131Z,90.76
2019-03-25T01:53:04.957Z,91.15
2019-03-25T01:54:05.286Z,90.97
2019-03-25T01:55:13.262Z,92.21
2019-03-25T01:56:06.182Z,91.29
2019-03-25T01:57:06.078Z,91.77
2019-03-25T01:58:06.504Z,91.33
2019-03-25T01:59:06.914Z,91.49
2019-03-25T02:00:07.352Z,92.06
2019-03-25T02:01:07.848Z,91.50
2019-03-25T02:02:08.379Z,91.44
2019-03-25T02:03:08.168Z,91.30
2019-03-25T02:04:08.499Z,91.56
2019-03-25T02:05:09.018Z,91.93
2019-03-25T02:06:09.010Z,92.40
2019-03-25T02:07:09.453Z,93.31
2019-03-25T02:08:09.914Z,93.09
2019-03-25T02:09:10.462Z,92.95
2019-03-25T02:10:10.173Z,93.44
2019-03-25T02:11:10.678Z,93.21
2019-03-25T02:12:10.440Z,93.42
2019-03-25T02:13:10.632Z,94.38
2019-03-25T02:14:11.115Z,94.25
2019-03-25T02:15:11.542Z,93.46
2019-03-25T02:16:11.738Z,93.82
2019-03-25T02:17:11.439Z,93.94
2019-03-25T02:18:11.967Z,94.40
2019-03-25T02:19:12.064Z,94.49
2019-03-25T02:20:11.880Z,95.43
2019-03-25T02:21:12.291Z,95.93
2019-03-25T02:22:12.799Z,95.64
2019-03-25T02:23:12.802Z,96.09
2019-03-25T02:24:13.020Z,95.28
2019-03-25T02:25:24.560Z,96.51
2019-03-25T02:26:13.616Z,95.72
2019-03-25T02:27:13.649Z,96.07
2019-03-25T02:28:13.348Z,95.84
2019-03-25T02:29:13.781Z,96.29
2019-03-25T02:30:14.300Z,96.62
2019-03-25T02:31:14.195Z,97.17
2019-03-25T02:32:14.615Z,97.03
2019-03-25T02:33:15.286Z,97.52
2019-03-25T02:35:15.051Z,97.92
2019-03-25T02:36:15.159Z,99.68
2019-03-25T02:37:15.460Z,100.00
2019-03-25T02:38:15.962Z,100.00
2019-03-25T02:39:16.288Z,100.00
2019-03-25T02:40:16.293Z,100.00
2019-03-25T02:41:18.849Z,100.00
2019-03-25T02:42:16.821Z,100.00
2019-03-25T02:43:17.034Z,100.00
2019-03-25T02:44:17.139Z,100.00
2019-03-25T02:45:17.765Z,100.00
2019-03-25T02:46:17.675Z,100.00
2019-03-25T02:47:18.188Z,100.00
2019-03-25T02:48:18.291Z,100.00
2019-03-25T02:49:18.315Z,100.00
2019-03-25T02:50:18.205Z,100.00
2019-03-25T02:51:18.742Z,100.00
2019-03-25T02:52:18.843Z,100.00
2019-03-25T02:53:18.633Z,100.00
2019-03-25T02:54:19.201Z,100.00
2019-03-25T02:55:19.372Z,100.00
2019-03-25T02:56:19.277Z,100.00
2019-03-25T02:57:19.087Z,100.00
2019-03-25T02:58:19.476Z,100.00
2019-03-25T02:59:19.923Z,100.00
2019-03-25T03:00:20.115Z,100.00
2019-03-25T03:01:20.630Z,100.00
2019-03-25T03:02:20.344Z,100.00
2019-03-25T03:03:20.688Z,100.00
2019-03-25T03:04:20.967Z,100.00
2019-03-25T03:05:21.512Z,100.00
2019-03-25T03:06:21.381Z,100.00
2019-03-25T03:07:21.693Z,100.00
2019-03-25T03:08:22.010Z,100.00
2019-03-25T03:09:22.429Z,100.00
2019-03-25T03:10:22.742Z,100.00
2019-03-25T03:11:23.152Z,100.00
2019-03-25T03:12:23.260Z,100.00
2019-03-25T03:13:23.370Z,100.00
2019-03-25T03:14:23.584Z,100.00
2019-03-25T03:15:24.118Z,100.00
2019-03-25T03:16:24.047Z,100.00
2019-03-25T03:17:24.738Z,100.00
2019-03-25T03:18:24.854Z,100.00
2019-03-25T03:19:24.965Z,100.00
2019-03-25T03:20:24.808Z,100.00
2019-03-25T03:21:25.374Z,100.00
2019-03-25T03:22:25.374Z,100.00
2019-03-25T03:23:25.586Z,100.00
2019-03-25T03:24:25.821Z,100.00
2019-03-25T03:25:26.427Z,100.00
2019-03-25T03:26:26.391Z,100.00
2019-03-25T03:27:29.742Z,100.00
2019-03-25T03:28:26.855Z,100.00
2019-03-25T03:29:27.063Z,100.00
2019-03-25T03:30:27.205Z,100.00
2019-03-25T03:31:27.702Z,100.00
2019-03-25T03:32:28.209Z,100.00
2019-03-25T03:33:28.373Z,100.00
2019-03-25T03:34:28.220Z,100.00
2019-03-25T03:35:28.649Z,100.00
2019-03-25T03:36:29.154Z,100.00
2019-03-25T03:37:29.060Z,100.00
2019-03-25T03:38:29.065Z,100.00
2019-03-25T03:39:29.483Z,100.00
2019-03-25T03:40:29.601Z,100.00
2019-03-25T03:41:29.807Z,100.00
2019-03-25T03:42:30.329Z,100.00
2019-03-25T03:43:30.126Z,100.00
2019-03-25T03:44:30.540Z,100.00
2019-03-25T03:45:30.657Z,100.00
2019-03-25T03:46:31.166Z,100.00
2019-03-25T03:47:31.685Z,100.00
2019-03-25T03:48:31.694Z,100.00
2019-03-25T03:49:32.208Z,100.00
2019-03-25T03:50:32.230Z,100.00
2019-03-25T03:51:32.434Z,100.00
2019-03-25T03:52:32.434Z,100.00
2019-03-25T03:53:32.850Z,100.00
2019-03-25T03:54:32.754Z,100.00
2019-03-25T03:55:33.381Z,100.00
2019-03-25T03:56:33.589Z,100.00
2019-03-25T03:57:33.594Z,100.00
2019-03-25T03:58:33.724Z,100.00
2019-03-25T03:59:34.331Z,100.00
2019-03-25T04:00:34.242Z,100.00
2019-03-25T04:01:34.744Z,100.00
2019-03-25T04:02:34.546Z,100.00
2019-03-25T04:03:34.963Z,100.00
2019-03-25T04:04:35.172Z,100.00
2019-03-25T04:05:35.394Z,100.00
2019-03-25T04:06:35.709Z,100.00
2019-03-25T04:07:36.140Z,100.00
2019-03-25T04:08:36.332Z,100.00
2019-03-25T04:09:36.683Z,100.00
2019-03-25T04:10:37.165Z,100.00
2019-03-25T04:11:37.271Z,100.00
2019-03-25T04:12:36.966Z,100.00
2019-03-25T04:13:37.385Z,100.00
2019-03-25T04:14:37.798Z,100.00
2019-03-25T04:15:38.452Z,100.00
2019-03-25T04:16:38.431Z,100.00
2019-03-25T04:17:38.973Z,100.00
2019-03-25T04:18:38.953Z,100.00
2019-03-25T04:19:39.475Z,100.00
2019-03-25T04:20:39.382Z,100.00
2019-03-25T04:21:39.791Z,100.00
2019-03-25T04:22:40.417Z,100.00
2019-03-25T04:23:40.419Z,100.00
2019-03-25T04:24:40.428Z,100.00
2019-03-25T04:25:40.239Z,100.00
2019-03-25T04:26:40.851Z,100.00
2019-03-25T04:27:40.967Z,100.00
2019-03-25T04:28:41.066Z,100.00
2019-03-25T04:29:41.076Z,100.00
2019-03-25T04:30:40.860Z,100.00
2019-03-25T04:31:41.095Z,100.00
2019-03-25T04:32:41.502Z,100.00
2019-03-25T04:33:41.615Z,100.00
2019-03-25T04:34:42.093Z,100.00
2019-03-25T04:35:42.658Z,100.00
2019-03-25T04:36:42.764Z,100.00
2019-03-25T04:37:42.659Z,100.00
2019-03-25T04:38:43.082Z,100.00
2019-03-25T04:39:43.658Z,100.00
2019-03-25T04:40:43.309Z,100.00
2019-03-25T04:41:43.607Z,100.00
2019-03-25T04:42:43.822Z,100.00
2019-03-25T04:43:44.135Z,100.00
2019-03-25T04:44:44.552Z,100.00
2019-03-25T04:45:45.186Z,100.00
2019-03-25T04:46:45.283Z,100.00
2019-03-25T04:47:45.386Z,100.00
2019-03-25T04:48:45.495Z,100.00
2019-03-25T04:49:45.309Z,100.00
2019-03-25T04:50:45.824Z,100.00
2019-03-25T04:51:46.336Z,100.00
2019-03-25T04:52:46.242Z,100.00
2019-03-25T04:53:46.761Z,100.00
2019-03-25T04:54:46.868Z,100.00
2019-03-25T04:55:46.676Z,100.00
2019-03-25T04:56:46.881Z,100.00
2019-03-25T04:57:47.400Z,100.00
2019-03-25T04:58:47.405Z,100.00
2019-03-25T04:59:47.725Z,100.00
2019-03-25T05:00:47.837Z,100.00
2019-03-25T05:01:48.247Z,100.00
2019-03-25T05:02:48.822Z,100.00
2019-03-25T05:03:48.772Z,100.00
2019-03-25T05:04:49.085Z,100.00
2019-03-25T05:05:49.407Z,100.00
2019-03-25T05:06:49.532Z,100.00
2019-03-25T05:07:49.923Z,100.00
2019-03-25T05:08:50.440Z,100.00
2019-03-25T05:09:50.859Z,100.00
2019-03-25T05:10:50.975Z,100.00
2019-03-25T05:11:51.383Z,100.00
2019-03-25T05:12:51.900Z,100.00
2019-03-25T05:13:51.909Z,100.00
2019-03-25T05:14:52.029Z,100.00
2019-03-25T05:15:52.030Z,100.00
2019-03-25T05:16:52.095Z,100.00
2019-03-25T05:17:51.828Z,100.00
2019-03-25T05:18:52.346Z,100.00
2019-03-25T05:19:52.254Z,100.00
2019-03-25T05:20:52.664Z,100.00
2019-03-25T05:21:52.983Z,100.00
2019-03-25T05:22:53.503Z,100.00
2019-03-25T05:23:53.612Z,100.00
2019-03-25T05:24:54.233Z,100.00
2019-03-25T05:26:54.386Z,100.00
2019-03-25T05:27:54.272Z,100.00
2019-03-25T05:28:54.269Z,100.00
2019-03-25T05:29:54.468Z,100.00
2019-03-25T05:31:54.793Z,100.00
2019-03-25T05:32:55.202Z,100.00
2019-03-25T05:33:55.933Z,100.00
2019-03-25T05:34:55.764Z,100.00
2019-03-25T05:35:56.031Z,100.00
2019-03-25T05:36:56.372Z,100.00
2019-03-25T05:37:56.672Z,100.00
2019-03-25T05:38:57.188Z,100.00
2019-03-25T05:39:57.197Z,100.00
2019-03-25T05:40:57.722Z,100.00
2019-03-25T05:41:57.719Z,100.00
2019-03-25T05:42:57.625Z,100.00
2019-03-25T05:43:57.739Z,100.00
2019-03-25T05:44:58.151Z,100.00
2019-03-25T05:45:59.103Z,100.00
2019-03-25T05:46:58.779Z,100.00
2019-03-25T05:47:58.989Z,100.00
2019-03-25T05:48:59.407Z,100.00
2019-03-25T05:49:59.513Z,100.00
2019-03-25T05:51:00.047Z,100.00
2019-03-25T05:52:00.140Z,100.00
2019-03-25T05:52:59.947Z,100.00
2019-03-25T05:54:00.060Z,100.00
2019-03-25T05:55:00.470Z,100.00
2019-03-25T05:56:01.000Z,100.00
2019-03-25T05:57:02.668Z,100.00
2019-03-25T05:58:01.511Z,100.00
2019-03-25T05:59:01.930Z,100.00
2019-03-25T06:00:02.445Z,100.00
2019-03-25T06:01:02.561Z,100.00
2019-03-25T06:02:03.198Z,100.00
2019-03-25T06:03:03.186Z,100.00
2019-03-25T06:04:03.703Z,100.00
2019-03-25T06:05:03.607Z,100.00
2019-03-25T06:06:03.629Z,100.00
2019-03-25T06:07:04.130Z,100.00
2019-03-25T06:08:04.548Z,100.00
2019-03-25T06:09:04.965Z,100.00
2019-03-25T06:10:05.410Z,100.00
2019-03-25T06:11:05.704Z,100.00
2019-03-25T06:12:06.027Z,100.00
2019-03-25T06:14:06.536Z,100.00
2019-03-25T06:16:07.072Z,100.00
2019-03-25T06:17:07.068Z,100.00
2019-03-25T06:18:07.479Z,100.00
2019-03-25T06:19:07.995Z,100.00
2019-03-25T06:20:07.808Z,100.00
2019-03-25T06:21:08.225Z,100.00
2019-03-25T06:22:08.633Z,100.00
2019-03-25T06:23:09.142Z,100.00
2019-03-25T06:24:09.668Z,100.00
2019-03-25T06:25:09.572Z,100.00
2019-03-25T06:26:09.937Z,100.00
2019-03-25T06:27:14.371Z,100.00
2019-03-25T06:28:10.924Z,100.00
2019-03-25T06:29:10.931Z,100.00
2019-03-25T06:30:10.735Z,100.00
2019-03-25T06:31:11.258Z,100.00
2019-03-25T06:32:11.771Z,100.00
2019-03-25T06:33:12.625Z,100.00
2019-03-25T06:34:11.784Z,100.00
2019-03-25T06:35:12.205Z,100.00
2019-03-25T06:36:12.419Z,100.00
2019-03-25T06:37:12.824Z,100.00
2019-03-25T06:38:13.450Z,100.00
2019-03-25T06:39:13.473Z,100.00
2019-03-25T06:40:13.184Z,100.00
2019-03-25T06:41:13.684Z,100.00
2019-03-25T06:42:14.093Z,100.00
2019-03-25T06:43:14.502Z,100.00
2019-03-25T06:44:14.920Z,100.00
2019-03-25T06:45:15.028Z,100.00
2019-03-25T06:46:15.454Z,100.00
2019-03-25T06:47:16.065Z,100.00
2019-03-25T06:48:15.970Z,100.00
2019-03-25T06:50:16.433Z,100.00
2019-03-25T06:51:17.020Z,100.00
2019-03-25T06:52:17.125Z,100.00
2019-03-25T06:53:17.140Z,100.00
2019-03-25T06:54:17.752Z,100.00
2019-03-25T06:55:17.387Z,100.00
2019-03-25T06:56:17.733Z,100.00
2019-03-25T06:57:25.495Z,100.00
2019-03-25T06:58:18.187Z,100.00
2019-03-25T06:59:18.297Z,100.00
2019-03-25T07:00:18.811Z,100.00
2019-03-25T07:01:18.839Z,100.00
2019-03-25T07:02:19.346Z,100.00
2019-03-25T07:03:19.462Z,100.00
2019-03-25T07:04:19.349Z,100.00
2019-03-25T07:05:19.665Z,100.00
2019-03-25T07:06:19.786Z,100.00
2019-03-25T07:07:20.201Z,100.00
2019-03-25T07:08:20.203Z,100.00
2019-03-25T07:09:20.985Z,100.00
2019-03-25T07:10:21.541Z,100.00
2019-03-25T07:11:21.862Z,100.00
2019-03-25T07:12:21.866Z,100.00
2019-03-25T07:13:22.381Z,100.00
2019-03-25T07:14:22.389Z,100.00
2019-03-25T07:15:22.292Z,100.00
2019-03-25T07:16:22.169Z,100.00
2019-03-25T07:17:22.718Z,100.00
2019-03-25T07:18:22.420Z,100.00
2019-03-25T07:19:22.826Z,100.00
2019-03-25T07:20:22.940Z,100.00
2019-03-25T07:21:23.163Z,100.00
2019-03-25T07:22:23.564Z,100.00
2019-03-25T07:23:23.877Z,100.00
2019-03-25T07:24:23.889Z,100.00
2019-03-25T07:25:24.301Z,100.00
2019-03-25T07:26:24.625Z,100.00
2019-03-25T07:27:36.036Z,100.00
2019-03-25T07:28:25.444Z,100.00
2019-03-25T07:29:25.348Z,100.00
2019-03-25T07:30:25.665Z,100.00
2019-03-25T07:31:26.196Z,100.00
2019-03-25T07:32:26.193Z,100.00
2019-03-25T07:33:26.712Z,100.00
2019-03-25T07:34:26.506Z,100.00
2019-03-25T07:35:27.051Z,100.00
2019-03-25T07:36:27.048Z,100.00
2019-03-25T07:37:26.937Z,100.00
2019-03-25T07:38:27.150Z,100.00
2019-03-25T07:39:27.670Z,100.00
2019-03-25T07:40:27.676Z,100.00
2019-03-25T07:41:28.102Z,100.00
2019-03-25T07:42:28.710Z,100.00
2019-03-25T07:43:28.616Z,100.00
2019-03-25T07:44:29.035Z,100.00
2019-03-25T07:45:29.297Z,100.00
2019-03-25T07:46:29.770Z,100.00
2019-03-25T07:47:29.462Z,100.00
2019-03-25T07:48:29.979Z,100.00
2019-03-25T07:49:30.091Z,100.00
2019-03-25T07:50:29.795Z,100.00
2019-03-25T07:51:30.016Z,100.00
2019-03-25T07:52:30.629Z,100.00
2019-03-25T07:53:30.730Z,100.00
2019-03-25T07:54:30.638Z,100.00
2019-03-25T07:55:31.156Z,100.00
2019-03-25T07:56:30.860Z,100.00
2019-03-25T07:57:31.380Z,100.00
2019-03-25T07:58:31.491Z,100.00
2019-03-25T07:59:31.385Z,100.00
2019-03-25T08:00:31.801Z,100.00
2019-03-25T08:01:32.222Z,100.00
2019-03-25T08:02:32.735Z,100.00
2019-03-25T08:03:32.743Z,100.00
2019-03-25T08:04:33.363Z,100.00
2019-03-25T08:05:33.370Z,100.00
2019-03-25T08:06:33.303Z,100.00
2019-03-25T08:07:33.487Z,100.00
2019-03-25T08:08:34.019Z,100.00
2019-03-25T08:09:33.749Z,100.00
2019-03-25T08:10:33.921Z,100.00
2019-03-25T08:11:34.367Z,100.00
2019-03-25T08:12:34.848Z,100.00
2019-03-25T08:13:34.586Z,100.00
2019-03-25T08:14:34.992Z,100.00
2019-03-25T08:15:35.384Z,100.00
2019-03-25T08:16:35.796Z,100.00
2019-03-25T08:17:36.119Z,100.00
2019-03-25T08:18:36.626Z,100.00
2019-03-25T08:19:36.531Z,100.00
2019-03-25T08:20:36.542Z,100.00
2019-03-25T08:21:37.567Z,100.00
2019-03-25T08:22:37.483Z,100.00
2019-03-25T08:23:37.890Z,100.00
2019-03-25T08:24:38.306Z,100.00
2019-03-25T08:25:38.516Z,100.00
2019-03-25T08:26:39.041Z,100.00
2019-03-25T08:27:38.999Z,100.00
2019-03-25T08:28:39.458Z,100.00
2019-03-25T08:29:39.746Z,100.00
2019-03-25T08:30:40.063Z,100.00
2019-03-25T08:31:40.397Z,100.00
2019-03-25T08:32:40.823Z,100.00
2019-03-25T08:33:41.233Z,100.00
2019-03-25T08:34:41.853Z,100.00
2019-03-25T08:35:41.861Z,100.00
2019-03-25T08:36:41.866Z,100.00
2019-03-25T08:37:42.395Z,100.00
2019-03-25T08:38:42.491Z,100.00
2019-03-25T08:39:42.086Z,100.00
2019-03-25T08:40:42.506Z,100.00
2019-03-25T08:41:42.820Z,100.00
2019-03-25T08:42:43.350Z,100.00
2019-03-25T08:43:43.247Z,100.00
2019-03-25T08:44:43.761Z,100.00
2019-03-25T08:45:43.970Z,100.00
2019-03-25T08:46:44.286Z,100.00
2019-03-25T08:47:44.819Z,100.00
2019-03-25T08:48:44.914Z,100.00
2019-03-25T08:49:44.560Z,100.00
2019-03-25T08:50:44.926Z,100.00
2019-03-25T08:51:45.448Z,100.00
2019-03-25T08:52:45.258Z,100.00
2019-03-25T08:53:45.766Z,100.00
2019-03-25T08:54:46.205Z,100.00
2019-03-25T08:55:46.801Z,100.00
2019-03-25T08:56:46.808Z,100.00
2019-03-25T08:57:47.026Z,100.00
2019-03-25T08:58:47.130Z,100.00
2019-03-25T08:59:47.242Z,100.00
2019-03-25T09:00:47.352Z,100.00
2019-03-25T09:01:47.457Z,100.00
2019-03-25T09:02:47.471Z,100.00
2019-03-25T09:03:47.475Z,100.00
2019-03-25T09:04:47.885Z,100.00
2019-03-25T09:05:48.199Z,100.00
2019-03-25T09:06:48.718Z,100.00
2019-03-25T09:07:48.710Z,100.00
2019-03-25T09:08:49.347Z,100.00
2019-03-25T09:09:49.044Z,100.00
2019-03-25T09:10:49.563Z,100.00
2019-03-25T09:11:51.563Z,100.00
2019-03-25T09:12:49.890Z,100.00
2019-03-25T09:13:49.893Z,100.00
2019-03-25T09:14:50.411Z,100.00
2019-03-25T09:15:50.208Z,96.24
2019-03-25T09:16:50.754Z,95.90
2019-03-25T09:17:51.259Z,98.62
2019-03-25T09:18:51.359Z,92.28
2019-03-25T09:19:51.361Z,91.36
2019-03-25T09:20:51.574Z,90.30
2019-03-25T09:21:51.994Z,81.86
2019-03-25T09:22:52.081Z,82.74
2019-03-25T09:23:52.273Z,77.73
2019-03-25T09:24:52.522Z,77.57
2019-03-25T09:25:52.754Z,73.75
2019-03-25T09:26:53.287Z,73.63
2019-03-25T09:27:53.066Z,74.42
2019-03-25T09:28:53.571Z,73.89
2019-03-25T09:29:53.988Z,69.12
2019-03-25T09:30:54.203Z,73.87
2019-03-25T09:31:54.009Z,75.31
2019-03-25T09:32:55.001Z,70.93
2019-03-25T09:33:54.937Z,71.03
2019-03-25T09:34:55.360Z,75.74
2019-03-25T09:35:55.977Z,74.17
2019-03-25T09:36:56.392Z,74.46
2019-03-25T09:37:57.124Z,71.95
2019-03-25T09:38:57.080Z,67.29
2019-03-25T09:39:57.291Z,68.78
2019-03-25T09:40:57.752Z,66.72
2019-03-25T09:41:58.139Z,63.23
2019-03-25T09:42:58.711Z,62.71
2019-03-25T09:43:58.896Z,61.66
2019-03-25T09:44:59.004Z,60.05
2019-03-25T09:45:58.908Z,58.81
2019-03-25T09:46:59.529Z,57.92
2019-03-25T09:47:59.647Z,55.74
2019-03-25T09:48:59.445Z,55.31
2019-03-25T09:50:05.753Z,53.84
2019-03-25T09:51:00.481Z,54.40
2019-03-25T09:52:00.700Z,54.67
2019-03-25T09:53:00.805Z,54.32
2019-03-25T09:54:01.316Z,54.35
2019-03-25T09:55:01.541Z,52.43
2019-03-25T09:56:01.531Z,53.74
2019-03-25T09:57:02.274Z,52.75
2019-03-25T09:58:02.372Z,51.93
2019-03-25T09:59:02.474Z,50.52
2019-03-25T10:00:02.583Z,51.92
2019-03-25T10:01:02.567Z,49.62
2019-03-25T10:02:02.810Z,50.50
2019-03-25T10:03:03.221Z,50.49
2019-03-25T10:04:03.641Z,50.16
2019-03-25T10:05:06.721Z,48.96
2019-03-25T10:06:04.260Z,48.46
2019-03-25T10:07:04.276Z,48.85
2019-03-25T10:08:04.890Z,47.96
2019-03-25T10:09:04.941Z,47.69
2019-03-25T10:10:05.033Z,46.71
2019-03-25T10:11:04.804Z,46.99
2019-03-25T10:12:05.130Z,46.09
2019-03-25T10:13:05.634Z,49.88
2019-03-25T10:14:06.019Z,49.41
2019-03-25T10:15:06.677Z,47.73
2019-03-25T10:16:06.262Z,48.58
2019-03-25T10:17:06.796Z,50.54
2019-03-25T10:18:06.803Z,51.50
2019-03-25T10:19:06.915Z,52.27
2019-03-25T10:20:06.810Z,52.47
2019-03-25T10:21:07.536Z,53.63
2019-03-25T10:22:08.059Z,54.22
2019-03-25T10:23:07.581Z,56.04
2019-03-25T10:25:08.276Z,56.90
2019-03-25T10:26:08.489Z,58.68
2019-03-25T10:27:08.605Z,59.25
2019-03-25T10:28:08.605Z,60.59
2019-03-25T10:29:09.138Z,63.06
2019-03-25T10:31:08.832Z,64.35
2019-03-25T10:32:08.958Z,73.67
2019-03-25T10:33:09.411Z,82.24
2019-03-25T10:34:09.672Z,82.81
2019-03-25T10:35:10.087Z,87.41
2019-03-25T10:36:10.595Z,86.92
2019-03-25T10:37:10.514Z,92.33
2019-03-25T10:38:19.603Z,95.63
2019-03-25T10:39:11.027Z,93.73
2019-03-25T10:40:11.444Z,90.95
2019-03-25T10:41:11.465Z,87.26
2019-03-25T10:42:11.476Z,91.01
2019-03-25T10:43:11.362Z,93.69
2019-03-25T10:44:11.780Z,94.81
2019-03-25T10:45:12.428Z,91.38
2019-03-25T10:46:12.431Z,93.42
2019-03-25T10:47:13.027Z,94.32
2019-03-25T10:48:12.972Z,94.95
2019-03-25T10:49:16.046Z,92.22
2019-03-25T10:50:16.424Z,96.05
2019-03-25T10:51:13.874Z,92.93
2019-03-25T10:52:13.898Z,91.51
2019-03-25T10:53:14.201Z,89.65
2019-03-25T10:54:14.710Z,89.16
2019-03-25T10:55:18.401Z,93.93
2019-03-25T10:56:15.342Z,91.50
2019-03-25T10:57:15.956Z,93.18
2019-03-25T10:58:15.998Z,90.51
2019-03-25T10:59:15.790Z,87.50
2019-03-25T11:00:16.253Z,87.54
2019-03-25T11:01:16.600Z,86.04
2019-03-25T11:02:17.118Z,82.80
2019-03-25T11:03:17.749Z,86.47
2019-03-25T11:04:17.745Z,89.12
2019-03-25T11:05:17.858Z,89.02
2019-03-25T11:06:18.269Z,88.63
2019-03-25T11:07:18.768Z,86.29
2019-03-25T11:08:19.116Z,85.85
2019-03-25T11:09:19.368Z,87.68
2019-03-25T11:10:19.731Z,88.15
2019-03-25T11:11:19.950Z,88.91
2019-03-25T11:12:20.053Z,87.68
2019-03-25T11:13:20.475Z,87.64
2019-03-25T11:14:21.092Z,85.69
2019-03-25T11:15:20.695Z,87.15
2019-03-25T11:16:21.110Z,83.98
2019-03-25T11:17:21.334Z,88.28
2019-03-25T11:18:21.853Z,89.59
2019-03-25T11:19:21.937Z,91.06
2019-03-25T11:20:21.533Z,91.21
2019-03-25T11:21:21.864Z,92.97
2019-03-25T11:22:22.368Z,94.57
2019-03-25T11:23:22.580Z,92.51
2019-03-25T11:24:23.152Z,93.10
2019-03-25T11:25:23.207Z,95.17
2019-03-25T11:26:22.904Z,93.69
2019-03-25T11:27:23.322Z,94.02
2019-03-25T11:28:23.542Z,93.64
2019-03-25T11:29:23.959Z,93.65
2019-03-25T11:30:24.263Z,94.08
2019-03-25T11:31:24.575Z,91.74
2019-03-25T11:32:24.279Z,92.62
2019-03-25T11:33:24.940Z,92.00
2019-03-25T11:34:25.182Z,91.75
2019-03-25T11:35:25.116Z,91.53
2019-03-25T11:36:25.449Z,91.04
2019-03-25T11:37:25.948Z,91.48
2019-03-25T11:38:25.877Z,92.01
2019-03-25T11:39:26.176Z,91.30
2019-03-25T11:40:26.481Z,90.92
2019-03-25T11:41:27.343Z,91.92
2019-03-25T11:42:27.332Z,90.31
2019-03-25T11:43:27.343Z,89.84
2019-03-25T11:44:29.064Z,90.13
2019-03-25T11:45:27.229Z,88.98
2019-03-25T11:46:27.747Z,90.13
2019-03-25T11:47:27.648Z,87.78
2019-03-25T11:48:28.269Z,89.04
2019-03-25T11:49:28.184Z,88.68
2019-03-25T11:50:28.535Z,89.30
2019-03-25T11:51:29.114Z,89.28
2019-03-25T11:52:29.649Z,89.63
2019-03-25T11:53:29.329Z,90.99
2019-03-25T11:54:29.445Z,88.76
2019-03-25T11:55:29.161Z,87.01
2019-03-25T11:56:29.757Z,86.83
2019-03-25T11:57:29.461Z,82.16
2019-03-25T11:58:30.079Z,77.29
2019-03-25T11:59:30.428Z,75.90
2019-03-25T12:00:30.427Z,75.08
2019-03-25T12:01:30.408Z,72.77
2019-03-25T12:02:30.822Z,71.92
2019-03-25T12:03:31.344Z,74.01
2019-03-25T12:04:31.256Z,77.40
2019-03-25T12:05:31.556Z,74.50
2019-03-25T12:06:32.041Z,74.49
2019-03-25T12:07:32.415Z,71.03
2019-03-25T12:08:32.614Z,68.56
2019-03-25T12:09:32.821Z,69.68
2019-03-25T12:10:33.436Z,67.74
2019-03-25T12:11:33.442Z,66.51
2019-03-25T12:12:33.557Z,66.94
2019-03-25T12:13:33.559Z,65.84
2019-03-25T12:14:33.564Z,65.17
2019-03-25T12:15:34.077Z,62.11
2019-03-25T12:16:34.244Z,61.58
2019-03-25T12:17:34.094Z,61.37
2019-03-25T12:18:34.305Z,59.70
2019-03-25T12:19:34.513Z,57.59
2019-03-25T12:20:35.038Z,58.36
2019-03-25T12:21:34.984Z,58.03
2019-03-25T12:22:35.497Z,56.74
2019-03-25T12:23:35.978Z,57.16
2019-03-25T12:24:35.983Z,55.18
2019-03-25T12:25:36.368Z,54.48
2019-03-25T12:26:40.035Z,54.87
2019-03-25T12:27:37.029Z,55.26
2019-03-25T12:28:37.544Z,55.08
2019-03-25T12:29:37.243Z,53.98
2019-03-25T12:30:37.644Z,52.79
2019-03-25T12:31:37.978Z,52.50
2019-03-25T12:32:38.286Z,52.71
2019-03-25T12:33:38.912Z,54.49
2019-03-25T12:34:38.918Z,55.38
2019-03-25T12:35:39.133Z,52.14
2019-03-25T12:36:39.652Z,52.14
2019-03-25T12:37:39.649Z,51.33
2019-03-25T12:38:39.763Z,51.72
2019-03-25T12:39:39.463Z,52.46
2019-03-25T12:40:40.094Z,50.39
2019-03-25T12:41:40.192Z,50.28
2019-03-25T12:42:40.749Z,51.07
2019-03-25T12:43:40.761Z,49.79
2019-03-25T12:44:41.235Z,51.66
2019-03-25T12:45:41.578Z,51.94
2019-03-25T12:46:42.062Z,52.50
2019-03-25T12:47:42.345Z,50.39
2019-03-25T12:48:42.899Z,50.80
2019-03-25T12:50:42.714Z,49.96
2019-03-25T12:51:42.720Z,49.56
2019-03-25T12:52:43.537Z,49.47